Time;durP1;ratioP1;P1;durP2;ratioP2;P2;SDS_P1;SDS_P2;PMS_P1;PMS_P2;Temp;Humidity;BMP_temperature;BMP_pressure;BME280_temperature;BME280_humidity;BME280_pressure;Samples;Min_cycle;Max_cycle;Signal;HPM_P1;HPM_P2
2022/04/20 00:00:41;;;;;;;2.70;1.87;;;18.20;59.20;;;;;;4952246;28;20206;-73
2022/04/20 00:03:12;;;;;;;2.60;1.90;;;18.20;59.20;;;;;;4936574;29;20421;-74
2022/04/20 00:05:38;;;;;;;1.80;1.57;;;18.10;59.20;;;;;;4947848;29;20448;-74
2022/04/20 00:08:07;;;;;;;2.57;1.67;;;18.10;59.20;;;;;;4917488;29;20458;-74
2022/04/20 00:10:33;;;;;;;2.50;1.70;;;18.10;59.30;;;;;;4935761;29;20450;-73
2022/04/20 00:13:01;;;;;;;2.93;1.77;;;18.10;59.30;;;;;;4932858;29;20471;-73
2022/04/20 00:15:32;;;;;;;2.30;1.87;;;18.00;59.20;;;;;;4934212;29;20431;-73
2022/04/20 00:17:58;;;;;;;2.80;2.13;;;18.00;59.30;;;;;;4936153;29;20454;-74
2022/04/20 00:20:24;;;;;;;2.67;1.97;;;18.00;59.30;;;;;;4936460;29;20582;-73
2022/04/20 00:22:50;;;;;;;3.80;1.90;;;18.00;59.30;;;;;;4936663;29;20183;-74
2022/04/20 00:25:18;;;;;;;1.90;1.70;;;18.00;59.40;;;;;;4936548;29;20985;-73
2022/04/20 00:27:47;;;;;;;2.77;1.93;;;18.00;59.40;;;;;;4920633;29;20458;-73
2022/04/20 00:30:18;;;;;;;2.00;1.80;;;17.90;59.40;;;;;;4936783;29;20517;-74
2022/04/20 00:32:44;;;;;;;2.47;1.73;;;17.90;59.40;;;;;;4936259;29;20453;-73
2022/04/20 00:35:13;;;;;;;2.43;2.17;;;17.90;59.40;;;;;;4936428;29;20851;-73
2022/04/20 00:37:43;;;;;;;2.60;2.07;;;17.90;59.40;;;;;;4920071;29;20451;-74
2022/04/20 00:40:12;;;;;;;2.70;1.80;;;17.80;59.30;;;;;;4936172;29;20791;-73
2022/04/20 00:42:41;;;;;;;1.90;1.77;;;17.90;59.40;;;;;;4931058;29;20469;-73
2022/04/20 00:45:11;;;;;;;2.87;2.57;;;17.80;59.40;;;;;;4931614;29;20541;-73
2022/04/20 00:47:39;;;;;;;2.70;2.00;;;17.80;59.40;;;;;;4935793;29;20947;-73
2022/04/20 00:50:11;;;;;;;3.70;1.80;;;17.80;59.40;;;;;;4937370;29;20431;-73
2022/04/20 00:52:38;;;;;;;2.73;1.90;;;17.80;59.50;;;;;;4937574;29;20461;-74
2022/04/20 00:55:07;;;;;;;2.00;1.60;;;17.70;59.40;;;;;;4955176;29;20890;-73
2022/04/20 00:57:36;;;;;;;1.73;1.60;;;17.70;59.50;;;;;;4938466;29;20893;-74
2022/04/20 01:00:07;;;;;;;3.60;1.77;;;17.70;59.50;;;;;;4920526;29;20450;-73
2022/04/20 01:02:45;;;;;;;1.60;1.50;;;17.70;59.50;;;;;;4929059;29;20449;-73
2022/04/20 01:05:14;;;;;;;3.70;1.90;;;17.70;59.60;;;;;;4938860;29;20449;-73
2022/04/20 01:08:00;;;;;;;2.00;1.80;;;17.60;59.50;;;;;;4955901;28;20465;-74
2022/04/20 01:10:52;;;;;;;2.40;1.53;;;17.60;59.60;;;;;;4938058;28;21137;-73
2022/04/20 01:13:50;;;;;;;2.40;2.13;;;17.60;59.60;;;;;;4931254;29;20447;-73
2022/04/20 01:16:21;;;;;;;2.60;2.00;;;17.60;59.60;;;;;;4943849;29;20425;-73
2022/04/20 01:19:03;;;;;;;2.40;1.90;;;17.60;59.70;;;;;;4941074;29;20461;-73
2022/04/20 01:21:40;;;;;;;3.30;1.90;;;17.50;59.60;;;;;;4939798;29;20937;-73
2022/04/20 01:24:32;;;;;;;2.17;1.93;;;17.50;59.60;;;;;;4940371;29;20539;-73
2022/04/20 01:27:15;;;;;;;2.47;1.90;;;17.50;59.60;;;;;;4935450;29;20458;-74
2022/04/20 01:30:02;;;;;;;2.00;1.80;;;17.40;59.60;;;;;;4932131;29;20435;-74
2022/04/20 01:32:41;;;;;;;3.00;1.73;;;17.40;59.70;;;;;;4938112;29;20467;-74
2022/04/20 01:35:16;;;;;;;2.23;2.00;;;17.40;59.70;;;;;;4935279;29;20484;-73
2022/04/20 01:37:42;;;;;;;2.13;1.93;;;17.40;59.70;;;;;;4919423;29;20879;-74
2022/04/20 01:40:08;;;;;;;6.10;2.13;;;17.40;59.70;;;;;;4934489;29;20443;-73
2022/04/20 01:42:37;;;;;;;4.00;1.90;;;17.30;59.50;;;;;;4903761;29;20764;-73
2022/04/20 01:45:09;;;;;;;3.00;1.90;;;17.40;59.70;;;;;;4920846;29;20497;-74
2022/04/20 01:47:58;;;;;;;2.10;1.80;;;17.30;59.60;;;;;;4935131;29;20454;-73
2022/04/20 01:53:49;;;;;;;4.57;2.10;;;17.30;59.70;;;;;;4937375;29;20424;-74
2022/04/20 01:56:34;;;;;;;2.17;1.87;;;17.30;59.70;;;;;;4936154;29;20417;-73
2022/04/20 01:59:26;;;;;;;2.53;2.20;;;17.20;59.60;;;;;;4934698;29;20844;-73
2022/04/20 02:05:14;;;;;;;3.20;1.70;;;17.20;59.70;;;;;;4918974;29;20412;-73
2022/04/20 02:07:44;;;;;;;2.20;2.00;;;17.20;59.60;;;;;;4934445;29;20451;-73
2022/04/20 02:10:13;;;;;;;3.20;2.00;;;17.10;59.60;;;;;;4929659;29;20526;-72
2022/04/20 02:12:42;;;;;;;2.30;1.73;;;17.10;59.60;;;;;;4952736;29;20477;-73
2022/04/20 02:15:24;;;;;;;3.57;2.50;;;17.10;59.60;;;;;;4934220;29;20916;-73
2022/04/20 02:18:06;;;;;;;2.20;2.00;;;17.10;59.60;;;;;;4934368;29;20481;-73
2022/04/20 02:20:49;;;;;;;3.03;1.90;;;17.10;59.60;;;;;;4934631;29;20427;-73
2022/04/20 02:23:15;;;;;;;3.03;2.00;;;17.00;59.50;;;;;;4934139;29;20465;-73
2022/04/20 02:25:45;;;;;;;2.23;2.03;;;17.10;59.70;;;;;;4918588;29;20516;-73
2022/04/20 02:28:14;;;;;;;2.40;2.10;;;17.00;59.50;;;;;;4918491;29;20465;-73
2022/04/20 02:30:40;;;;;;;3.17;2.20;;;17.00;59.50;;;;;;4934142;29;20478;-73
2022/04/20 02:33:06;;;;;;;4.17;2.27;;;17.00;59.60;;;;;;4934633;29;20825;-73
2022/04/20 02:35:36;;;;;;;3.00;2.03;;;17.00;59.60;;;;;;4938308;29;20823;-73
2022/04/20 02:38:06;;;;;;;2.13;1.93;;;16.90;59.60;;;;;;4936096;29;20494;-73
2022/04/20 02:40:31;;;;;;;2.50;2.00;;;16.90;59.60;;;;;;4934949;29;20442;-74
2022/04/20 02:42:57;;;;;;;2.43;2.00;;;16.90;59.60;;;;;;4933932;29;20414;-74
2022/04/20 02:45:24;;;;;;;2.27;2.07;;;16.90;59.60;;;;;;4934878;29;21141;-74
2022/04/20 02:47:53;;;;;;;2.53;2.00;;;16.90;59.50;;;;;;4933944;29;20449;-73
2022/04/20 02:50:18;;;;;;;2.90;2.10;;;16.90;59.50;;;;;;4934241;29;20907;-73
2022/04/20 02:52:45;;;;;;;2.20;2.00;;;16.90;59.50;;;;;;4933882;29;20509;-73
2022/04/20 02:55:11;;;;;;;1.87;1.73;;;16.90;59.50;;;;;;4933397;29;20794;-73
2022/04/20 02:57:37;;;;;;;2.97;2.43;;;16.80;59.50;;;;;;4933648;29;20520;-74
2022/04/20 03:00:05;;;;;;;2.50;2.00;;;16.80;59.50;;;;;;4918240;29;20535;-73
2022/04/20 03:02:37;;;;;;;2.80;1.93;;;16.80;59.40;;;;;;4918207;29;20438;-74
2022/04/20 03:05:03;;;;;;;2.47;2.27;;;16.80;59.50;;;;;;4934656;29;20497;-73
2022/04/20 03:07:30;;;;;;;2.10;1.90;;;16.80;59.50;;;;;;4952693;28;20484;-73
2022/04/20 03:09:57;;;;;;;2.87;2.30;;;16.80;59.50;;;;;;4940258;29;20445;-73
2022/04/20 03:12:26;;;;;;;2.30;2.10;;;16.70;59.50;;;;;;4921552;29;20466;-73
2022/04/20 03:14:54;;;;;;;2.77;1.73;;;16.70;59.40;;;;;;4946644;29;20509;-73
2022/04/20 03:17:27;;;;;;;2.20;2.00;;;16.70;59.40;;;;;;4938062;28;20453;-73
2022/04/20 03:19:53;;;;;;;2.50;2.30;;;16.70;59.50;;;;;;4952681;29;20570;-73
2022/04/20 03:22:23;;;;;;;2.40;2.13;;;16.70;59.50;;;;;;4942904;29;20431;-73
2022/04/20 03:24:49;;;;;;;3.77;2.80;;;16.60;59.40;;;;;;4933448;29;20540;-73
2022/04/20 03:27:18;;;;;;;2.33;2.13;;;16.60;59.40;;;;;;4933880;29;20494;-73
2022/04/20 03:29:52;;;;;;;2.30;1.90;;;16.60;59.40;;;;;;4917896;29;20540;-73
2022/04/20 03:32:21;;;;;;;3.80;2.10;;;16.60;59.50;;;;;;4933315;29;20459;-73
2022/04/20 03:34:49;;;;;;;2.63;2.30;;;16.50;59.40;;;;;;4917872;29;20435;-73
2022/04/20 03:37:17;;;;;;;2.00;1.83;;;16.60;59.60;;;;;;4933094;29;20445;-73
2022/04/20 03:39:46;;;;;;;2.20;2.00;;;16.60;59.60;;;;;;4933781;29;20425;-73
2022/04/20 03:42:14;;;;;;;4.13;2.40;;;16.50;59.50;;;;;;4947707;29;20500;-74
2022/04/20 03:44:43;;;;;;;2.50;2.13;;;16.50;59.50;;;;;;4952719;29;20460;-73
2022/04/20 03:47:10;;;;;;;1.97;1.77;;;16.50;59.50;;;;;;4921749;29;21057;-73
2022/04/20 03:49:41;;;;;;;2.30;2.10;;;16.50;59.60;;;;;;4917709;29;20485;-73
2022/04/20 03:52:07;;;;;;;3.07;2.17;;;16.50;59.50;;;;;;4936167;29;20554;-73
2022/04/20 03:54:37;;;;;;;3.30;2.33;;;16.40;59.50;;;;;;4936980;29;20925;-73
2022/04/20 03:57:07;;;;;;;3.13;2.40;;;16.40;59.50;;;;;;4921213;29;20454;-74
2022/04/20 03:59:52;;;;;;;2.70;2.50;;;16.40;59.50;;;;;;4918014;29;20412;-73
2022/04/20 04:02:24;;;;;;;2.87;2.10;;;16.40;59.50;;;;;;4952821;29;20772;-73
2022/04/20 04:05:10;;;;;;;3.33;2.37;;;16.40;59.60;;;;;;4956705;29;20456;-73
2022/04/20 04:07:48;;;;;;;2.60;2.10;;;16.30;59.50;;;;;;4917723;29;20440;-72
2022/04/20 04:10:18;;;;;;;4.87;2.50;;;16.30;59.50;;;;;;4942294;29;20435;-72
2022/04/20 04:12:49;;;;;;;2.30;1.70;;;16.30;59.50;;;;;;4955350;29;20499;-72
2022/04/20 04:15:20;;;;;;;3.13;2.00;;;16.30;59.50;;;;;;4947701;29;20891;-73
2022/04/20 04:17:54;;;;;;;2.73;2.50;;;16.30;59.60;;;;;;4940116;29;20439;-73
2022/04/20 04:20:23;;;;;;;3.17;2.10;;;16.20;59.50;;;;;;4952447;29;20514;-73
2022/04/20 04:22:51;;;;;;;2.40;2.20;;;16.20;59.60;;;;;;4921416;29;20451;-73
2022/04/20 04:25:40;;;;;;;3.57;2.33;;;16.20;59.60;;;;;;4893372;29;20507;-73
2022/04/20 04:28:09;;;;;;;3.80;2.70;;;16.20;59.60;;;;;;4925488;29;20545;-73
2022/04/20 04:30:38;;;;;;;4.83;2.40;;;16.20;59.70;;;;;;4934905;29;20456;-73
2022/04/20 04:33:04;;;;;;;2.50;1.90;;;16.20;59.60;;;;;;4919810;29;20462;-73
2022/04/20 04:35:34;;;;;;;2.33;1.83;;;16.20;59.70;;;;;;4953987;29;20953;-73
2022/04/20 04:38:00;;;;;;;3.13;2.43;;;16.10;59.60;;;;;;4938492;29;20528;-73
2022/04/20 04:40:29;;;;;;;3.20;1.80;;;16.10;59.60;;;;;;4937704;29;20449;-73
2022/04/20 04:42:58;;;;;;;3.50;2.40;;;16.10;59.60;;;;;;4942200;29;20432;-73
2022/04/20 04:48:39;;;;;;;2.30;2.00;;;16.10;59.70;;;;;;4956246;28;20457;-71
2022/04/20 04:51:11;;;;;;;2.40;2.20;;;16.10;59.70;;;;;;4956175;29;20796;-71
2022/04/20 04:53:42;;;;;;;4.63;2.33;;;16.00;59.70;;;;;;4956504;29;20511;-71
2022/04/20 04:56:12;;;;;;;2.43;1.83;;;16.00;59.70;;;;;;4956184;29;20415;-71
2022/04/20 04:58:45;;;;;;;2.50;2.07;;;16.00;59.70;;;;;;4940336;29;20985;-71
2022/04/20 05:01:14;;;;;;;3.43;2.43;;;16.00;59.80;;;;;;4940316;29;20431;-71
2022/04/20 05:03:40;;;;;;;3.27;2.20;;;16.00;59.80;;;;;;4939099;29;20410;-71
2022/04/20 05:06:12;;;;;;;3.87;2.50;;;15.90;59.70;;;;;;4956168;29;20451;-71
2022/04/20 05:09:04;;;;;;;2.33;1.90;;;15.90;59.80;;;;;;4947675;28;20461;-71
2022/04/20 05:11:33;;;;;;;2.93;2.17;;;15.90;59.90;;;;;;4939628;29;20512;-71
2022/04/20 05:13:59;;;;;;;3.50;2.00;;;15.90;59.90;;;;;;4940068;29;20406;-71
2022/04/20 05:16:27;;;;;;;3.00;2.43;;;15.90;60.00;;;;;;4924391;28;20507;-71
2022/04/20 05:18:54;;;;;;;3.97;2.40;;;15.90;60.10;;;;;;4955743;29;20413;-71
2022/04/20 05:21:23;;;;;;;3.30;2.17;;;15.80;60.00;;;;;;4955943;29;20413;-71
2022/04/20 05:23:58;;;;;;;5.03;2.50;;;15.80;60.00;;;;;;4940122;29;20465;-70
2022/04/20 05:26:28;;;;;;;3.80;2.20;;;15.80;60.10;;;;;;4955643;29;20416;-70
2022/04/20 05:28:54;;;;;;;5.23;2.30;;;15.80;60.20;;;;;;4955597;29;20408;-69
2022/04/20 05:31:23;;;;;;;1.80;1.63;;;15.80;60.20;;;;;;4955521;29;20463;-71
2022/04/20 05:33:50;;;;;;;3.20;2.43;;;15.80;60.20;;;;;;4939757;29;20920;-71
2022/04/20 05:36:19;;;;;;;4.53;2.40;;;15.80;60.30;;;;;;4939650;29;20411;-71
2022/04/20 05:41:40;;;;;;;3.47;2.03;;;15.70;60.30;;;;;;4955530;29;20810;-70
2022/04/20 05:44:12;;;;;;;2.97;2.00;;;15.70;60.40;;;;;;4924089;29;20449;-71
2022/04/20 05:46:41;;;;;;;3.90;2.17;;;15.70;60.40;;;;;;4955201;28;20408;-70
2022/04/20 05:49:10;;;;;;;3.20;2.20;;;15.70;60.50;;;;;;4939831;29;20408;-70
2022/04/20 05:51:36;;;;;;;4.17;2.10;;;15.70;60.60;;;;;;4939292;29;20478;-70
2022/04/20 05:54:05;;;;;;;2.10;1.90;;;15.70;60.70;;;;;;4955170;29;20193;-71
2022/04/20 05:56:35;;;;;;;4.20;2.03;;;15.70;60.70;;;;;;4911261;29;20930;-70
2022/04/20 05:59:02;;;;;;;5.30;2.57;;;15.60;60.70;;;;;;4919644;29;20444;-70
2022/04/20 06:01:33;;;;;;;3.30;2.40;;;15.60;60.70;;;;;;4935478;29;20406;-71
2022/04/20 06:04:07;;;;;;;3.20;2.10;;;15.60;60.70;;;;;;4936823;29;20471;-71
2022/04/20 06:07:12;;;;;;;3.47;2.30;;;15.60;60.80;;;;;;4929838;29;20899;-71
2022/04/20 06:09:55;;;;;;;4.70;2.20;;;15.60;61.00;;;;;;4935716;29;20977;-70
2022/04/20 06:12:42;;;;;;;2.70;2.10;;;15.60;61.10;;;;;;4936424;29;20544;-71
2022/04/20 06:15:21;;;;;;;3.67;2.33;;;15.60;61.20;;;;;;4935359;29;20406;-71
2022/04/20 06:18:06;;;;;;;3.00;2.10;;;15.50;61.10;;;;;;4936619;29;20492;-71
2022/04/20 06:20:35;;;;;;;2.73;2.20;;;15.50;61.10;;;;;;4919915;29;20435;-71
2022/04/20 06:23:30;;;;;;;3.40;2.50;;;15.50;61.30;;;;;;4932055;29;20952;-71
2022/04/20 06:26:18;;;;;;;2.50;2.13;;;15.50;61.30;;;;;;4936353;29;20463;-71
2022/04/20 06:29:10;;;;;;;2.30;1.90;;;15.50;61.40;;;;;;4934102;29;20461;-71
2022/04/20 06:32:08;;;;;;;2.57;2.30;;;15.50;61.50;;;;;;4928151;29;20472;-71
2022/04/20 06:34:46;;;;;;;2.23;2.03;;;15.50;61.70;;;;;;4936164;29;20455;-72
2022/04/20 06:37:51;;;;;;;4.03;2.17;;;15.50;61.70;;;;;;4910533;29;20458;-71
2022/04/20 06:40:35;;;;;;;3.27;2.60;;;15.50;61.80;;;;;;4947592;29;20455;-71
2022/04/20 06:43:37;;;;;;;2.73;2.17;;;15.50;61.90;;;;;;4947170;28;20441;-71
2022/04/20 06:46:26;;;;;;;2.17;1.97;;;15.50;61.90;;;;;;4933030;29;20431;-71
2022/04/20 06:49:12;;;;;;;2.43;2.13;;;15.50;61.90;;;;;;4936057;29;20845;-71
2022/04/20 07:00:19;;;;;;;2.40;2.10;;;15.50;62.20;;;;;;4919300;29;20457;-72
2022/04/20 07:03:12;;;;;;;2.70;2.13;;;15.50;62.20;;;;;;4919669;29;20472;-73
2022/04/20 07:06:04;;;;;;;3.57;2.60;;;15.50;62.30;;;;;;4922733;29;20538;-73
2022/04/20 07:08:36;;;;;;;2.47;1.97;;;15.50;62.30;;;;;;4919274;29;20452;-73
2022/04/20 07:11:06;;;;;;;2.90;2.40;;;15.50;62.30;;;;;;4934357;29;20444;-73
2022/04/20 07:13:33;;;;;;;2.23;1.93;;;15.50;62.30;;;;;;4936163;29;20419;-72
2022/04/20 07:16:00;;;;;;;2.30;2.00;;;15.50;62.40;;;;;;4953476;29;20488;-73
2022/04/20 07:18:31;;;;;;;3.63;2.30;;;15.50;62.40;;;;;;4931662;29;20446;-73
2022/04/20 07:21:03;;;;;;;2.50;1.80;;;15.50;62.40;;;;;;4929451;29;20422;-73
2022/04/20 07:23:50;;;;;;;2.97;2.30;;;15.50;62.50;;;;;;4896122;29;20466;-73
2022/04/20 07:26:37;;;;;;;2.50;1.97;;;15.50;62.50;;;;;;4936863;29;20422;-73
2022/04/20 07:29:10;;;;;;;2.33;2.10;;;15.50;62.60;;;;;;4938585;29;20440;-73
2022/04/20 07:31:57;;;;;;;2.93;2.20;;;15.50;62.60;;;;;;4943353;29;20455;-73
2022/04/20 07:34:41;;;;;;;3.07;2.07;;;15.50;62.70;;;;;;4919371;29;20406;-73
2022/04/20 07:37:27;;;;;;;2.30;2.10;;;15.50;62.60;;;;;;4921563;29;20456;-73
2022/04/20 07:40:14;;;;;;;2.60;1.90;;;15.60;62.90;;;;;;4941384;28;20442;-73
2022/04/20 07:42:56;;;;;;;6.13;2.17;;;15.50;62.90;;;;;;4957250;29;20449;-73
2022/04/20 07:45:46;;;;;;;3.40;2.00;;;15.50;62.90;;;;;;4938316;29;20431;-73
2022/04/20 07:48:35;;;;;;;1.90;1.70;;;15.60;63.00;;;;;;4938728;28;20475;-73
2022/04/20 07:51:21;;;;;;;1.93;1.73;;;15.60;63.00;;;;;;4945976;29;21180;-72
2022/04/20 07:54:25;;;;;;;2.40;2.00;;;15.60;63.00;;;;;;4910563;29;20565;-73
2022/04/20 07:57:03;;;;;;;1.77;1.60;;;15.60;63.00;;;;;;4907612;29;20457;-73
2022/04/20 07:59:48;;;;;;;2.20;1.97;;;15.60;63.00;;;;;;4925840;29;20438;-73
2022/04/20 08:02:33;;;;;;;3.70;1.80;;;15.60;63.00;;;;;;4958041;28;20422;-73
2022/04/20 08:05:16;;;;;;;2.90;1.80;;;15.60;63.00;;;;;;4940987;29;20432;-73
2022/04/20 08:07:45;;;;;;;2.97;2.00;;;15.60;63.00;;;;;;4921694;29;20456;-73
2022/04/20 08:10:12;;;;;;;2.20;1.80;;;15.60;63.00;;;;;;4933915;29;20429;-73
2022/04/20 08:12:41;;;;;;;4.00;1.80;;;15.60;63.00;;;;;;4955604;29;20481;-73
2022/04/20 08:15:12;;;;;;;2.17;1.80;;;15.60;63.00;;;;;;4926693;29;20770;-73
2022/04/20 08:17:44;;;;;;;8.53;2.73;;;15.60;63.00;;;;;;4938783;29;20514;-73
2022/04/20 08:20:33;;;;;;;3.40;2.13;;;15.60;63.00;;;;;;4951021;29;20431;-73
2022/04/20 08:22:59;;;;;;;2.07;1.67;;;15.70;63.10;;;;;;4940656;29;20429;-73
2022/04/20 08:25:27;;;;;;;1.70;1.60;;;15.70;63.00;;;;;;4941279;29;20806;-73
2022/04/20 08:27:53;;;;;;;2.13;1.77;;;15.70;63.00;;;;;;4937106;29;20997;-73
2022/04/20 08:30:19;;;;;;;2.63;2.20;;;15.70;62.90;;;;;;4921647;29;20417;-73
2022/04/20 08:32:50;;;;;;;1.90;1.67;;;15.70;63.00;;;;;;4954548;28;20213;-73
2022/04/20 08:35:16;;;;;;;2.23;1.87;;;15.70;63.00;;;;;;4957029;29;20406;-73
2022/04/20 08:37:44;;;;;;;2.33;1.80;;;15.70;62.90;;;;;;4955791;28;20535;-73
2022/04/20 08:40:13;;;;;;;3.30;2.27;;;15.70;62.90;;;;;;4941834;28;20434;-73
2022/04/20 08:42:42;;;;;;;2.17;1.90;;;15.80;62.90;;;;;;4946119;29;20537;-73
2022/04/20 08:45:12;;;;;;;2.97;2.10;;;15.80;62.80;;;;;;4939968;29;20923;-73
2022/04/20 08:47:44;;;;;;;5.23;2.40;;;15.80;62.80;;;;;;4947181;28;20454;-73
2022/04/20 08:50:12;;;;;;;2.53;2.30;;;15.80;62.70;;;;;;4937275;29;20434;-73
2022/04/20 08:52:38;;;;;;;5.90;2.20;;;15.90;62.60;;;;;;4936449;29;21077;-73
2022/04/20 08:55:08;;;;;;;2.33;2.13;;;15.90;62.60;;;;;;4938140;29;20420;-73
2022/04/20 08:57:38;;;;;;;2.40;2.10;;;15.90;62.40;;;;;;4935734;29;20499;-72
2022/04/20 09:00:13;;;;;;;1.80;1.70;;;15.90;62.30;;;;;;4935664;29;20496;-72
2022/04/20 09:02:40;;;;;;;3.20;2.07;;;16.00;62.40;;;;;;4936238;29;20476;-72
2022/04/20 09:05:08;;;;;;;2.37;2.13;;;16.00;62.30;;;;;;4937109;29;20427;-72
2022/04/20 09:07:37;;;;;;;3.50;2.23;;;16.00;62.30;;;;;;4935521;29;20462;-72
2022/04/20 09:10:03;;;;;;;2.30;2.10;;;16.00;62.30;;;;;;4937429;29;20541;-72
2022/04/20 09:12:32;;;;;;;3.80;2.70;;;16.10;62.30;;;;;;4934159;29;20472;-72
2022/04/20 09:15:00;;;;;;;2.70;1.93;;;16.10;62.20;;;;;;4935630;29;20463;-72
2022/04/20 09:17:31;;;;;;;2.77;2.23;;;16.10;62.20;;;;;;4934390;28;20449;-72
2022/04/20 09:19:58;;;;;;;2.70;2.30;;;16.20;62.30;;;;;;4934311;29;20534;-72
2022/04/20 09:22:28;;;;;;;5.80;2.60;;;16.20;62.10;;;;;;4933843;29;20453;-73
2022/04/20 09:25:17;;;;;;;2.53;2.27;;;16.20;61.90;;;;;;4935086;29;20454;-72
2022/04/20 09:27:43;;;;;;;2.53;2.00;;;16.30;61.90;;;;;;4927578;29;20995;-73
2022/04/20 09:30:15;;;;;;;2.40;2.20;;;16.30;61.90;;;;;;4934581;29;20481;-72
2022/04/20 09:32:45;;;;;;;5.70;2.00;;;16.30;61.70;;;;;;4935137;29;20228;-72
2022/04/20 09:35:15;;;;;;;2.73;2.43;;;16.40;61.90;;;;;;4899662;29;20959;-73
2022/04/20 09:37:42;;;;;;;2.10;1.60;;;16.40;61.80;;;;;;4928940;29;20443;-72
2022/04/20 09:40:35;;;;;;;2.27;1.90;;;16.50;61.90;;;;;;4919623;29;20972;-72
2022/04/20 09:43:07;;;;;;;2.67;1.63;;;16.50;61.70;;;;;;4933269;29;20931;-73
2022/04/20 09:45:39;;;;;;;3.23;2.17;;;16.50;61.70;;;;;;4917440;29;20478;-73
2022/04/20 09:51:12;;;;;;;4.03;1.83;;;16.60;61.70;;;;;;4941135;29;20490;-73
2022/04/20 09:53:40;;;;;;;3.83;2.10;;;16.60;61.60;;;;;;4902148;29;20436;-72
2022/04/20 09:56:20;;;;;;;1.90;1.80;;;16.70;61.70;;;;;;4901821;29;20441;-72
2022/04/20 09:59:17;;;;;;;2.80;2.10;;;16.70;61.50;;;;;;4934082;29;20462;-73
2022/04/20 10:01:47;;;;;;;3.77;2.27;;;16.70;61.50;;;;;;4917633;29;20454;-72
2022/04/20 10:04:14;;;;;;;3.50;2.00;;;16.80;61.60;;;;;;4933049;29;20830;-73
2022/04/20 10:06:43;;;;;;;2.40;1.90;;;16.80;61.50;;;;;;4917631;29;20439;-72
2022/04/20 10:09:12;;;;;;;2.33;2.13;;;16.80;61.40;;;;;;4932410;29;20528;-72
2022/04/20 10:11:41;;;;;;;2.37;1.90;;;16.80;61.20;;;;;;4941721;29;21022;-73
2022/04/20 10:17:01;;;;;;;2.20;1.90;;;16.90;61.30;;;;;;4932222;29;20878;-74
2022/04/20 10:19:28;;;;;;;2.97;1.90;;;17.00;61.30;;;;;;4940520;29;20431;-74
2022/04/20 10:22:02;;;;;;;3.00;2.20;;;17.00;61.30;;;;;;4916040;29;20453;-73
2022/04/20 10:24:30;;;;;;;2.40;1.87;;;17.00;61.20;;;;;;4909406;29;20475;-74
2022/04/20 10:27:06;;;;;;;2.73;1.83;;;17.10;61.30;;;;;;4937116;29;20456;-73
2022/04/20 10:29:55;;;;;;;2.10;1.90;;;17.10;61.10;;;;;;4907437;29;20449;-71
2022/04/20 10:32:27;;;;;;;2.30;1.90;;;17.20;61.10;;;;;;4916990;29;20948;-72
2022/04/20 10:35:04;;;;;;;2.70;2.00;;;17.20;61.00;;;;;;4931704;29;20447;-72
2022/04/20 10:38:12;;;;;;;2.80;2.00;;;17.20;61.00;;;;;;4917374;29;20917;-72
2022/04/20 10:41:07;;;;;;;2.43;1.93;;;17.30;61.10;;;;;;4934715;29;20512;-71
2022/04/20 10:43:43;;;;;;;2.43;2.10;;;17.30;61.00;;;;;;4934973;29;20785;-71
2022/04/20 10:46:16;;;;;;;3.20;1.93;;;17.30;61.00;;;;;;4934693;29;20402;-71
2022/04/20 10:48:58;;;;;;;2.13;1.93;;;17.40;61.00;;;;;;4934687;29;20445;-71
2022/04/20 10:51:30;;;;;;;2.70;2.43;;;17.40;61.00;;;;;;4935774;29;20457;-71
2022/04/20 10:54:24;;;;;;;3.00;2.30;;;17.40;60.80;;;;;;4918819;29;20461;-71
2022/04/20 10:57:00;;;;;;;3.53;2.03;;;17.50;60.80;;;;;;4919515;29;20966;-72
2022/04/20 10:59:29;;;;;;;2.03;1.70;;;17.50;60.60;;;;;;4933855;29;20989;-72
2022/04/20 11:02:06;;;;;;;3.60;2.00;;;17.50;60.60;;;;;;4917622;29;20871;-72
2022/04/20 11:04:39;;;;;;;6.57;2.60;;;17.60;60.80;;;;;;4934187;29;20774;-73
2022/04/20 11:07:07;;;;;;;4.07;2.10;;;17.60;60.80;;;;;;4934584;29;20445;-73
2022/04/20 11:09:52;;;;;;;3.00;2.00;;;17.70;60.80;;;;;;4935903;29;20968;-73
2022/04/20 11:18:38;;;;;;;4.87;1.83;;;17.80;60.70;;;;;;4934251;29;20434;-73
2022/04/20 11:21:27;;;;;;;2.73;1.77;;;17.80;60.60;;;;;;4927554;29;20478;-72
2022/04/20 11:23:59;;;;;;;2.20;2.10;;;17.80;60.50;;;;;;4934248;29;20435;-72
2022/04/20 11:26:34;;;;;;;2.50;2.10;;;17.90;60.60;;;;;;4935410;29;20414;-72
2022/04/20 11:29:09;;;;;;;3.40;1.83;;;17.90;60.50;;;;;;4935332;29;20920;-72
2022/04/20 11:31:42;;;;;;;2.90;2.10;;;18.00;60.60;;;;;;4934186;29;20905;-72
2022/04/20 11:34:15;;;;;;;2.20;2.00;;;18.00;60.60;;;;;;4934271;29;20431;-72
2022/04/20 11:36:47;;;;;;;2.10;1.90;;;18.00;60.60;;;;;;4918402;29;20890;-72
2022/04/20 11:39:21;;;;;;;2.77;2.10;;;18.00;60.50;;;;;;4934543;29;20430;-72
2022/04/20 11:41:52;;;;;;;2.67;1.90;;;18.10;60.70;;;;;;4934225;29;20897;-72
2022/04/20 11:44:23;;;;;;;2.23;2.00;;;18.10;60.60;;;;;;4914933;29;20871;-72
2022/04/20 11:46:50;;;;;;;3.10;1.80;;;18.20;60.60;;;;;;4899739;29;20456;-72
2022/04/20 11:49:20;;;;;;;2.30;1.70;;;18.20;60.60;;;;;;4914915;29;20412;-72
2022/04/20 11:52:06;;;;;;;2.30;1.70;;;18.20;60.50;;;;;;4899443;29;20915;-72
2022/04/20 11:54:35;;;;;;;2.37;1.80;;;18.30;60.60;;;;;;4899421;29;20412;-72
2022/04/20 11:57:09;;;;;;;4.40;2.03;;;18.30;60.50;;;;;;4899532;29;20444;-72
2022/04/20 11:59:47;;;;;;;2.20;2.00;;;18.30;60.50;;;;;;4915019;29;20550;-72
2022/04/20 12:02:20;;;;;;;3.07;1.97;;;18.40;60.40;;;;;;4899678;29;20467;-72
2022/04/20 12:05:09;;;;;;;2.20;1.80;;;18.40;60.30;;;;;;4915612;29;20417;-72
2022/04/20 12:07:36;;;;;;;1.97;1.60;;;18.40;60.20;;;;;;4915032;29;20455;-72
2022/04/20 12:10:05;;;;;;;2.10;1.87;;;18.50;60.20;;;;;;4916061;29;20431;-72
2022/04/20 12:12:33;;;;;;;2.90;1.90;;;18.50;60.20;;;;;;4916911;29;20471;-72
2022/04/20 12:15:09;;;;;;;2.60;1.63;;;18.50;60.10;;;;;;4919417;29;20451;-72
2022/04/20 12:17:38;;;;;;;2.20;1.90;;;18.60;60.10;;;;;;4902694;29;20966;-72
2022/04/20 12:20:04;;;;;;;2.40;2.20;;;18.60;60.00;;;;;;4919465;29;20893;-71
2022/04/20 12:22:33;;;;;;;2.30;2.10;;;18.60;59.90;;;;;;4902713;29;20429;-72
2022/04/20 12:25:19;;;;;;;2.73;1.90;;;18.70;59.90;;;;;;4917975;29;20535;-72
2022/04/20 12:27:56;;;;;;;4.77;2.13;;;18.70;59.80;;;;;;4902535;29;20826;-72
2022/04/20 12:30:45;;;;;;;2.40;2.13;;;18.70;59.70;;;;;;4919309;29;20407;-72
2022/04/20 12:33:26;;;;;;;2.13;1.97;;;18.70;59.60;;;;;;4918034;29;20509;-72
2022/04/20 12:36:11;;;;;;;2.77;1.87;;;18.80;59.60;;;;;;4918014;29;20416;-72
2022/04/20 12:39:21;;;;;;;2.03;1.80;;;18.80;59.60;;;;;;4905676;29;20431;-72
2022/04/20 12:41:56;;;;;;;3.07;1.80;;;18.80;59.50;;;;;;4919103;29;20934;-72
2022/04/20 12:44:37;;;;;;;2.50;1.93;;;18.90;59.50;;;;;;4919195;29;20543;-72
2022/04/20 12:47:14;;;;;;;3.07;2.10;;;18.90;59.60;;;;;;4935064;29;20449;-72
2022/04/20 12:49:45;;;;;;;2.10;1.77;;;18.90;59.40;;;;;;4936819;29;20510;-72
2022/04/20 12:52:14;;;;;;;2.03;1.83;;;18.90;59.30;;;;;;4936789;29;20487;-72
2022/04/20 12:55:07;;;;;;;2.73;1.87;;;19.00;59.50;;;;;;4938010;29;20414;-72
2022/04/20 13:03:36;;;;;;;2.27;1.90;;;19.10;59.40;;;;;;4935577;29;20451;-72
2022/04/20 13:06:12;;;;;;;1.90;1.77;;;19.10;59.30;;;;;;4937678;29;20492;-72
2022/04/20 13:08:45;;;;;;;1.93;1.60;;;19.20;59.30;;;;;;4936405;29;20435;-72
2022/04/20 13:11:17;;;;;;;2.47;2.10;;;19.10;59.20;;;;;;4920797;29;20428;-72
2022/04/20 13:13:43;;;;;;;2.00;1.80;;;19.20;59.20;;;;;;4920646;29;20419;-72
2022/04/20 13:16:12;;;;;;;2.53;1.90;;;19.20;59.10;;;;;;4920599;29;20451;-72
2022/04/20 13:18:41;;;;;;;2.07;1.87;;;19.30;59.10;;;;;;4936148;29;20503;-72
2022/04/20 13:21:09;;;;;;;2.13;1.93;;;19.30;59.10;;;;;;4936360;29;20406;-72
2022/04/20 13:23:38;;;;;;;2.13;1.93;;;19.30;59.00;;;;;;4935333;29;20436;-72
2022/04/20 13:28:58;;;;;;;6.20;2.13;;;19.40;58.90;;;;;;4901847;29;20427;-72
2022/04/20 13:31:26;;;;;;;3.00;2.13;;;19.40;58.70;;;;;;4917219;29;20442;-72
2022/04/20 13:33:54;;;;;;;2.03;1.83;;;19.40;58.60;;;;;;4917118;29;20478;-72
2022/04/20 13:36:21;;;;;;;2.20;2.00;;;19.50;58.70;;;;;;4901215;29;20409;-72
2022/04/20 13:38:47;;;;;;;2.10;1.90;;;19.50;58.80;;;;;;4917905;29;20441;-72
2022/04/20 13:41:13;;;;;;;2.30;1.90;;;19.50;58.80;;;;;;4918037;29;20449;-72
2022/04/20 13:43:43;;;;;;;2.40;1.83;;;19.60;58.90;;;;;;4916989;29;20409;-72
2022/04/20 13:46:12;;;;;;;2.23;1.90;;;19.60;58.80;;;;;;4901571;29;20433;-72
2022/04/20 13:48:41;;;;;;;4.40;2.23;;;19.60;58.80;;;;;;4916654;29;20442;-72
2022/04/20 13:51:09;;;;;;;5.40;2.03;;;19.70;58.80;;;;;;4917821;29;20486;-72
2022/04/20 13:53:35;;;;;;;2.00;1.80;;;19.70;58.60;;;;;;4916562;29;20957;-72
2022/04/20 13:56:01;;;;;;;4.00;2.00;;;19.70;58.60;;;;;;4917777;29;20405;-72
2022/04/20 13:58:31;;;;;;;2.30;2.00;;;19.70;58.50;;;;;;4916071;29;20777;-73
2022/04/20 14:00:59;;;;;;;1.97;1.83;;;19.80;58.60;;;;;;4927175;29;20508;-72
2022/04/20 14:03:25;;;;;;;1.57;1.47;;;19.80;58.50;;;;;;4936624;29;20494;-72